Time;durP1;ratioP1;P1;durP2;ratioP2;P2;SDS_P1;SDS_P2;PMS_P1;PMS_P2;Temp;Humidity;BMP_temperature;BMP_pressure;BME280_temperature;BME280_humidity;BME280_pressure;Samples;Min_cycle;Max_cycle;Signal;HPM_P1;HPM_P2
2022/04/26 03:37:24;;;;;;;15.18;5.97;;;;;;;6.64;87.62;101408.91;5260315;28;20112;-78
2022/04/26 03:39:56;;;;;;;8.53;5.50;;;;;;;6.66;87.82;101407.19;5242431;28;20048;-78
2022/04/26 03:42:27;;;;;;;7.37;5.83;;;;;;;6.64;88.12;101419.25;5243180;28;20076;-78
2022/04/26 03:44:58;;;;;;;9.23;5.90;;;;;;;6.59;88.23;101410.56;5241192;28;20064;-78
2022/04/26 03:47:30;;;;;;;10.47;5.23;;;;;;;6.58;88.40;101414.84;5259574;28;20076;-79
2022/04/26 03:50:01;;;;;;;10.53;6.47;;;;;;;6.61;88.62;101426.97;5247026;28;20029;-77
2022/04/26 03:52:32;;;;;;;11.40;5.57;;;;;;;6.65;88.85;101420.97;5238832;28;20037;-79
2022/04/26 03:55:04;;;;;;;13.50;5.77;;;;;;;6.61;88.72;101420.06;5242487;28;20091;-78
2022/04/26 03:57:37;;;;;;;11.23;6.43;;;;;;;6.56;89.25;101416.56;5238782;28;20040;-77
2022/04/26 04:00:09;;;;;;;12.00;5.78;;;;;;;6.59;89.59;101423.50;5250692;28;20041;-78
2022/04/26 04:02:40;;;;;;;8.30;6.78;;;;;;;6.51;89.54;101413.03;5259513;28;20028;-77
2022/04/26 04:05:11;;;;;;;11.57;6.57;;;;;;;6.51;89.83;101424.25;5244498;28;20033;-78
2022/04/26 04:07:43;;;;;;;8.60;6.13;;;;;;;6.56;90.21;101424.31;5218168;28;20041;-78
2022/04/26 04:10:14;;;;;;;10.37;6.30;;;;;;;6.55;90.55;101431.25;5248081;28;20045;-78
2022/04/26 04:12:45;;;;;;;11.73;6.60;;;;;;;6.54;90.69;101432.06;5258927;28;20029;-78
2022/04/26 04:15:17;;;;;;;14.47;6.20;;;;;;;6.59;90.84;101434.72;5248200;28;20037;-79
2022/04/26 04:17:48;;;;;;;11.13;6.53;;;;;;;6.60;90.90;101440.78;5237487;28;20470;-80
2022/04/26 04:20:20;;;;;;;13.67;7.03;;;;;;;6.65;91.19;101434.81;5247966;28;20078;-78
2022/04/26 04:22:53;;;;;;;13.00;7.47;;;;;;;6.59;90.82;101444.22;5258827;28;20458;-80
2022/04/26 04:25:25;;;;;;;10.63;6.45;;;;;;;6.59;90.68;101447.69;5259440;28;20062;-79
2022/04/26 04:27:56;;;;;;;11.07;6.37;;;;;;;6.64;91.14;101448.63;5250544;28;20091;-78
2022/04/26 04:30:28;;;;;;;9.50;6.50;;;;;;;6.64;90.75;101446.03;5259548;28;20079;-77
2022/04/26 04:33:02;;;;;;;10.47;6.90;;;;;;;6.65;91.11;101455.56;5247579;28;20075;-78
2022/04/26 04:35:33;;;;;;;11.98;7.10;;;;;;;6.62;90.94;101452.03;5238324;28;20033;-78
2022/04/26 04:38:05;;;;;;;13.63;7.63;;;;;;;6.64;90.97;101452.94;5239593;28;20041;-77
2022/04/26 04:40:36;;;;;;;9.57;7.17;;;;;;;6.72;90.69;101459.09;5236132;28;20065;-76
2022/04/26 04:43:07;;;;;;;9.43;6.50;;;;;;;6.68;90.92;101452.13;5235905;28;21039;-79
2022/04/26 04:45:40;;;;;;;7.70;5.77;;;;;;;6.70;91.13;101468.56;5236372;28;20041;-79
2022/04/26 04:48:11;;;;;;;11.90;6.65;;;;;;;6.68;91.03;101463.38;5235972;28;20029;-78
2022/04/26 04:50:43;;;;;;;11.40;7.20;;;;;;;6.71;90.83;101472.88;5236305;28;20036;-78
2022/04/26 04:53:18;;;;;;;9.07;7.03;;;;;;;6.70;91.35;101471.16;5237016;28;20071;-78
2022/04/26 04:55:50;;;;;;;9.90;7.53;;;;;;;6.66;91.49;101467.63;5236478;28;20076;-78
2022/04/26 04:58:21;;;;;;;13.73;7.13;;;;;;;6.68;91.41;101481.50;5237425;28;20029;-78
2022/04/26 05:00:52;;;;;;;11.77;7.17;;;;;;;6.71;91.35;101485.84;5237044;28;20030;-77
2022/04/26 05:03:24;;;;;;;10.27;7.50;;;;;;;6.72;91.58;101482.41;5236843;28;20037;-77
2022/04/26 05:05:55;;;;;;;10.93;7.27;;;;;;;6.74;91.63;101486.75;5237740;28;20504;-77
2022/04/26 05:08:27;;;;;;;9.83;7.13;;;;;;;6.79;91.29;101494.59;5236409;28;20037;-79
2022/04/26 05:11:00;;;;;;;16.02;6.75;;;;;;;6.82;91.12;101494.63;5235776;28;20468;-77
2022/04/26 05:13:31;;;;;;;10.93;7.05;;;;;;;6.86;90.53;101493.84;5235568;28;20061;-79
2022/04/26 05:16:03;;;;;;;8.27;6.37;;;;;;;6.86;90.57;101498.13;5236336;28;20452;-78
2022/04/26 05:18:34;;;;;;;11.53;7.27;;;;;;;6.88;91.29;101507.69;5235256;28;20038;-77
2022/04/26 05:21:07;;;;;;;9.63;7.17;;;;;;;6.85;90.85;101509.38;5234763;28;20033;-77
2022/04/26 05:26:29;;;;;;;15.65;6.97;;;;;;;6.85;90.63;101507.63;5235162;28;20037;-77
2022/04/26 05:29:01;;;;;;;11.10;7.17;;;;;;;6.91;91.16;101517.25;5236851;28;20026;-78
2022/04/26 05:31:32;;;;;;;9.87;6.80;;;;;;;6.99;91.02;101522.50;5236513;28;20045;-78
2022/04/26 05:34:06;;;;;;;8.37;6.63;;;;;;;7.02;90.72;101523.44;5237167;28;20298;-79
2022/04/26 05:36:37;;;;;;;10.93;7.22;;;;;;;7.07;90.53;101521.78;5237923;28;20396;-79
2022/04/26 05:39:09;;;;;;;11.63;6.57;;;;;;;7.10;90.50;101521.81;5237513;28;20037;-77
2022/04/26 05:41:40;;;;;;;9.27;6.77;;;;;;;7.19;89.74;101521.06;5235018;28;20038;-78
2022/04/26 05:44:11;;;;;;;11.27;7.47;;;;;;;7.23;89.53;101520.25;5233699;28;20050;-79
2022/04/26 05:46:42;;;;;;;13.97;7.33;;;;;;;7.24;89.04;101527.16;5234794;28;20347;-79
2022/04/26 05:49:14;;;;;;;12.47;7.53;;;;;;;7.28;89.25;101526.38;5234341;28;20025;-78
2022/04/26 05:51:46;;;;;;;12.73;7.27;;;;;;;7.23;89.21;101525.44;5234457;28;20033;-79
2022/04/26 05:54:17;;;;;;;8.43;7.43;;;;;;;7.27;89.16;101526.34;5235017;28;20373;-78
2022/04/26 05:56:48;;;;;;;13.17;8.07;;;;;;;7.32;89.51;101529.88;5234349;28;20060;-78
2022/04/26 05:59:20;;;;;;;8.17;6.73;;;;;;;7.42;89.51;101536.03;5234786;28;20036;-78
2022/04/26 06:01:52;;;;;;;9.17;7.40;;;;;;;7.53;89.07;101536.16;5234052;28;20033;-78
2022/04/26 06:04:25;;;;;;;13.07;7.50;;;;;;;7.64;88.17;101538.03;5234830;28;21164;-79
2022/04/26 06:06:56;;;;;;;11.13;7.43;;;;;;;7.72;88.54;101538.13;5237177;28;20091;-76
2022/04/26 06:09:27;;;;;;;12.73;7.33;;;;;;;7.78;87.52;101545.13;5238552;28;20029;-78
2022/04/26 06:11:59;;;;;;;11.67;6.67;;;;;;;7.87;87.73;101542.59;5238072;28;20106;-76
2022/04/26 06:14:30;;;;;;;10.50;7.50;;;;;;;7.91;86.84;101543.53;5238528;28;20072;-79
2022/04/26 06:17:02;;;;;;;13.87;7.60;;;;;;;7.92;86.78;101547.84;5238239;28;20029;-77
2022/04/26 06:19:33;;;;;;;11.07;7.40;;;;;;;8.14;86.48;101556.72;5237939;28;20034;-77
2022/04/26 06:22:04;;;;;;;12.10;7.97;;;;;;;8.06;86.15;101548.84;5238937;28;20509;-77
2022/04/26 06:24:36;;;;;;;13.03;7.63;;;;;;;8.27;85.95;101550.78;5238949;28;20037;-78
2022/04/26 06:27:07;;;;;;;13.83;8.13;;;;;;;8.32;85.90;101549.13;5237882;28;20027;-77
2022/04/26 06:29:39;;;;;;;17.00;8.57;;;;;;;8.51;85.30;101550.16;5237962;28;20122;-78
2022/04/26 06:32:10;;;;;;;11.07;7.60;;;;;;;8.61;84.71;101556.28;5237762;28;20476;-77
2022/04/26 06:34:42;;;;;;;12.03;7.70;;;;;;;8.65;83.77;101557.22;5238275;28;20117;-78
2022/04/26 06:37:14;;;;;;;11.00;7.10;;;;;;;8.49;83.61;101566.59;5238436;28;20026;-78
2022/04/26 06:39:45;;;;;;;14.43;7.68;;;;;;;8.47;84.33;101565.69;5237732;28;20036;-78
2022/04/26 06:42:17;;;;;;;15.23;8.13;;;;;;;8.63;84.46;101565.00;5238643;28;20033;-78
2022/04/26 06:44:48;;;;;;;11.20;7.63;;;;;;;8.79;84.24;101570.28;5237699;28;20045;-78
2022/04/26 06:47:19;;;;;;;18.67;7.30;;;;;;;8.84;83.34;101558.19;5238993;28;20028;-77
2022/04/26 06:49:51;;;;;;;9.07;7.73;;;;;;;8.74;82.84;101565.94;5238735;28;20448;-77
2022/04/26 06:52:22;;;;;;;17.50;8.53;;;;;;;8.73;83.04;101568.53;5239269;28;20026;-78
2022/04/26 06:54:54;;;;;;;12.33;8.17;;;;;;;8.84;82.20;101578.97;5220841;28;20041;-77
2022/04/26 06:57:25;;;;;;;9.00;7.17;;;;;;;8.89;82.69;101577.31;5238995;28;20021;-78
2022/04/26 06:59:57;;;;;;;11.13;9.30;;;;;;;8.74;81.71;101573.75;5238650;28;20036;-78
2022/04/26 07:02:28;;;;;;;12.43;10.03;;;;;;;8.76;82.18;101576.34;5240037;28;20026;-77
2022/04/26 07:05:00;;;;;;;14.30;9.60;;;;;;;9.00;83.00;101583.44;5237824;28;20033;-77
2022/04/26 07:07:31;;;;;;;10.63;8.07;;;;;;;9.07;81.03;101580.00;5238133;28;20032;-77
2022/04/26 07:10:03;;;;;;;16.50;11.17;;;;;;;9.11;79.93;101581.78;5239326;28;20429;-77
2022/04/26 07:12:35;;;;;;;14.37;9.20;;;;;;;9.19;79.50;101583.56;5238443;28;20685;-77
2022/04/26 07:15:07;;;;;;;13.87;8.87;;;;;;;9.28;80.06;101587.06;5239648;28;20452;-78
2022/04/26 07:17:40;;;;;;;15.90;9.43;;;;;;;9.33;80.08;101581.91;5240741;28;20283;-78
2022/04/26 07:20:11;;;;;;;11.25;8.70;;;;;;;9.25;79.79;101587.06;5237954;28;20026;-77
2022/04/26 07:22:43;;;;;;;16.73;9.13;;;;;;;9.05;79.51;101584.34;5237667;28;20092;-78
2022/04/26 07:25:15;;;;;;;16.97;9.70;;;;;;;9.05;80.01;101589.56;5237517;28;20103;-78
2022/04/26 07:27:46;;;;;;;16.60;9.18;;;;;;;9.05;79.94;101589.56;5237241;28;20499;-78
2022/04/26 07:30:18;;;;;;;16.70;8.50;;;;;;;9.05;78.77;101588.69;5236766;28;20033;-77
2022/04/26 07:35:39;;;;;;;15.18;8.32;;;;;;;9.15;77.87;101600.03;5238087;28;20037;-78
2022/04/26 07:38:10;;;;;;;13.43;7.93;;;;;;;9.27;77.26;101597.47;5237256;28;20021;-78
2022/04/26 07:40:42;;;;;;;17.20;8.80;;;;;;;9.17;76.38;101600.88;5219930;28;20450;-78
2022/04/26 07:43:14;;;;;;;13.00;7.83;;;;;;;9.39;75.88;101602.75;5238390;28;20033;-77
2022/04/26 07:45:45;;;;;;;12.53;7.70;;;;;;;9.73;76.12;101604.66;5238103;28;20436;-79
2022/04/26 07:48:17;;;;;;;10.10;7.87;;;;;;;9.84;74.99;101608.16;5238892;28;20025;-79
2022/04/26 07:50:49;;;;;;;10.67;7.37;;;;;;;10.05;73.80;101612.56;5237589;28;20030;-79
2022/04/26 07:53:21;;;;;;;12.25;7.60;;;;;;;10.45;73.65;101619.59;5238205;28;20025;-78
2022/04/26 07:55:52;;;;;;;15.37;7.83;;;;;;;10.54;72.01;101620.47;5237926;28;20480;-79
2022/04/26 07:58:23;;;;;;;14.17;7.47;;;;;;;10.53;70.58;101615.28;5237347;28;20037;-77
2022/04/26 08:00:55;;;;;;;15.27;7.03;;;;;;;10.28;69.84;101629.97;5236135;28;20064;-79
2022/04/26 08:03:27;;;;;;;15.83;8.30;;;;;;;10.31;70.53;101635.19;5235774;28;20037;-80
2022/04/26 08:05:58;;;;;;;15.50;7.47;;;;;;;10.27;71.63;101633.44;5237691;28;20108;-79
2022/04/26 08:08:30;;;;;;;13.73;10.53;;;;;;;10.58;71.67;101630.03;5238466;28;20045;-79
2022/04/26 08:11:01;;;;;;;11.93;6.60;;;;;;;10.80;69.80;101640.47;5237465;28;20051;-80
2022/04/26 08:13:33;;;;;;;10.83;6.90;;;;;;;10.97;70.70;101637.88;5239162;28;20506;-79
2022/04/26 08:16:04;;;;;;;16.03;6.80;;;;;;;10.98;69.59;101649.16;5238286;28;20044;-79
2022/04/26 08:18:36;;;;;;;11.00;6.50;;;;;;;10.83;69.50;101647.44;5238699;28;20129;-79
2022/04/26 08:21:09;;;;;;;17.70;6.80;;;;;;;11.05;67.64;101648.31;5237990;28;20025;-79
2022/04/26 08:29:22;;;;;;;11.98;6.90;;;;;;;11.10;66.75;101659.59;5238664;28;20037;-78
2022/04/26 08:31:55;;;;;;;14.70;7.10;;;;;;;11.18;66.75;101659.59;5237311;28;20022;-79
2022/04/26 08:34:28;;;;;;;11.52;6.18;;;;;;;11.50;65.38;101659.53;5237591;28;20021;-80
2022/04/26 08:36:59;;;;;;;15.13;6.93;;;;;;;11.54;65.85;101663.88;5237457;28;20037;-78
2022/04/26 08:39:30;;;;;;;13.03;6.80;;;;;;;12.07;66.59;101674.16;5238505;28;20029;-78
2022/04/26 08:42:04;;;;;;;10.97;7.40;;;;;;;11.77;65.45;101674.25;5237827;28;20044;-78
2022/04/26 08:44:36;;;;;;;11.48;5.97;;;;;;;11.81;66.02;101669.88;5237019;28;20492;-77
2022/04/26 08:52:49;;;;;;;10.98;6.32;;;;;;;11.89;65.28;101677.69;5237356;28;20178;-77
2022/04/26 08:55:20;;;;;;;;;;;;;;;12.20;63.92;101679.34;5238060;28;20030;-79
2022/04/26 08:57:52;;;;;;;10.32;5.95;;;;;;;11.62;64.23;101672.56;5237520;28;19917;-77
2022/04/26 09:00:24;;;;;;;11.07;5.90;;;;;;;11.57;65.01;101681.28;5237886;28;20057;-79
2022/04/26 09:03:01;;;;;;;7.87;5.43;;;;;;;11.70;66.01;101685.59;5237542;28;20064;-79
2022/04/26 09:05:33;;;;;;;9.80;5.93;;;;;;;11.79;64.48;101679.47;5236461;28;20464;-78
2022/04/26 09:08:20;;;;;;;11.73;5.63;;;;;;;11.99;65.58;101680.31;5236979;28;20060;-77
2022/04/26 09:10:51;;;;;;;10.32;5.60;;;;;;;11.88;64.36;101674.19;5237031;28;20053;-78
2022/04/26 09:13:24;;;;;;;8.80;4.80;;;;;;;12.23;63.66;101681.03;5237584;28;20132;-78
2022/04/26 09:15:57;;;;;;;9.63;4.57;;;;;;;12.65;62.08;101681.66;5235713;28;20033;-80
2022/04/26 09:18:30;;;;;;;9.25;5.10;;;;;;;12.65;60.84;101681.66;5234422;28;20049;-78
2022/04/26 09:21:05;;;;;;;11.02;4.65;;;;;;;13.16;60.79;101685.63;5234427;28;20029;-79
2022/04/26 09:23:38;;;;;;;12.02;5.50;;;;;;;13.36;59.68;101669.75;5234450;28;20463;-80
2022/04/26 09:26:12;;;;;;;8.82;4.72;;;;;;;13.15;58.33;101687.34;5234542;28;20075;-78
2022/04/26 09:28:49;;;;;;;19.42;5.32;;;;;;;12.76;58.63;101687.66;5235577;28;20872;-79
2022/04/26 09:31:25;;;;;;;9.07;4.47;;;;;;;12.65;58.17;101688.63;5235002;28;20465;-78
2022/04/26 09:34:05;;;;;;;11.27;4.82;;;;;;;13.47;56.88;101694.94;5234900;28;20034;-79
2022/04/26 09:36:48;;;;;;;9.30;4.22;;;;;;;13.50;55.77;101700.13;5233969;28;20033;-79
2022/04/26 09:39:21;;;;;;;8.75;4.43;;;;;;;14.47;52.79;101698.09;5234335;28;20082;-78
2022/04/26 09:41:52;;;;;;;9.98;4.28;;;;;;;14.57;50.42;101699.69;5236643;28;20549;-79
2022/04/26 09:44:32;;;;;;;8.93;4.30;;;;;;;14.91;50.84;101706.22;5238965;28;20053;-79
2022/04/26 09:47:03;;;;;;;9.88;4.57;;;;;;;15.35;46.55;101707.22;5238696;28;20076;-79
2022/04/26 09:49:37;;;;;;;8.20;3.67;;;;;;;16.13;46.87;101722.38;5239046;28;20119;-78
2022/04/26 09:52:13;;;;;;;8.93;4.00;;;;;;;17.05;46.15;101714.16;5238737;28;20128;-80
2022/04/26 09:54:45;;;;;;;11.70;4.00;;;;;;;17.63;42.20;101706.53;5240159;28;20043;-79
2022/04/26 09:57:20;;;;;;;;;;;;;;;17.91;41.60;101711.06;5240612;28;20400;-80
2022/04/26 09:59:53;;;;;;;6.63;3.97;;;;;;;16.18;43.49;101715.25;5241461;28;19913;-79
2022/04/26 10:02:30;;;;;;;10.13;4.47;;;;;;;16.72;42.78;101722.81;5240313;28;20033;-78
2022/04/26 10:05:04;;;;;;;9.63;4.00;;;;;;;17.20;40.51;101723.47;5240734;28;20382;-79
2022/04/26 10:07:37;;;;;;;8.52;3.75;;;;;;;16.86;42.15;101719.06;5240520;28;20025;-78
2022/04/26 10:10:09;;;;;;;6.65;4.20;;;;;;;17.15;42.31;101726.22;5240337;28;20022;-79
2022/04/26 10:13:31;;;;;;;6.22;4.15;;;;;;;17.17;43.94;101731.47;5240378;28;20033;-77
2022/04/26 10:15:34;;;;;;;;;;;;;;;18.38;42.97;101724.59;5240218;28;20030;-78
2022/04/26 10:18:34;;;;;;;10.13;4.37;;;;;;;17.26;43.54;101736.50;5238493;28;19936;-78
2022/04/26 10:21:07;;;;;;;10.85;4.72;;;;;;;15.23;45.10;101734.56;5238665;28;20722;-79
2022/04/26 10:23:50;;;;;;;8.30;4.00;;;;;;;15.00;46.84;101736.69;5221360;28;20365;-79
2022/04/26 10:26:24;;;;;;;10.82;4.60;;;;;;;15.95;46.56;101742.03;5239739;28;20022;-79
2022/04/26 10:29:17;;;;;;;9.35;4.30;;;;;;;16.57;43.90;101745.09;5239220;28;20033;-77
2022/04/26 10:31:54;;;;;;;8.70;4.65;;;;;;;17.36;42.91;101735.34;5238867;28;20042;-79
2022/04/26 10:34:31;;;;;;;8.82;4.18;;;;;;;16.50;43.23;101735.63;5240332;28;20025;-81
2022/04/26 10:37:05;;;;;;;7.50;3.50;;;;;;;16.45;43.63;101747.16;5239999;28;20035;-79
2022/04/26 10:39:49;;;;;;;11.20;3.88;;;;;;;16.56;41.51;101743.38;5238957;28;20365;-79
2022/04/26 10:42:20;;;;;;;9.07;4.88;;;;;;;16.09;43.30;101753.16;5240015;28;20052;-79
2022/04/26 10:44:57;;;;;;;9.47;3.80;;;;;;;15.40;43.98;101749.16;5238350;28;20045;-79
2022/04/26 10:47:29;;;;;;;6.90;3.90;;;;;;;15.24;44.83;101754.69;5239308;28;20111;-79
2022/04/26 10:50:03;;;;;;;10.27;3.73;;;;;;;16.33;43.30;101751.78;5239507;28;20101;-78
2022/04/26 10:52:37;;;;;;;6.95;3.75;;;;;;;16.36;40.92;101756.97;5237525;28;20190;-79
2022/04/26 10:55:10;;;;;;;6.10;3.90;;;;;;;16.58;40.67;101769.66;5238730;28;20025;-79
2022/04/26 10:57:47;;;;;;;11.43;4.13;;;;;;;16.90;40.04;101760.19;5239979;28;20057;-79
2022/04/26 11:00:25;;;;;;;9.30;3.60;;;;;;;17.82;38.62;101763.13;5240331;28;20037;-80
2022/04/26 11:03:03;;;;;;;7.93;3.65;;;;;;;18.29;37.12;101759.19;5238323;28;20334;-79
2022/04/26 11:05:35;;;;;;;9.13;3.90;;;;;;;18.13;36.99;101754.38;5238777;28;20036;-78
2022/04/26 11:08:07;;;;;;;8.30;3.38;;;;;;;17.42;36.13;101758.91;5238212;28;20538;-80
2022/04/26 11:13:35;;;;;;;6.82;3.60;;;;;;;20.10;34.08;101748.84;5237165;28;20059;-79
2022/04/26 11:16:09;;;;;;;8.00;3.45;;;;;;;21.75;30.59;101752.78;5237264;28;20460;-79
2022/04/26 11:18:43;;;;;;;6.72;4.03;;;;;;;22.20;29.94;101749.84;5237368;28;20101;-80
2022/04/26 11:21:14;;;;;;;6.60;4.07;;;;;;;22.62;28.43;101750.59;5236922;28;20087;-80
2022/04/26 11:29:42;;;;;;;9.57;4.33;;;;;;;21.88;29.61;101743.38;5237991;28;20037;-76
2022/04/26 11:32:42;;;;;;;5.88;3.40;;;;;;;22.84;29.39;101747.72;5238346;28;20591;-79
2022/04/26 11:35:16;;;;;;;7.68;3.83;;;;;;;23.21;27.92;101745.91;5237812;28;20037;-79
2022/04/26 11:37:53;;;;;;;7.88;4.70;;;;;;;21.49;29.57;101742.41;5237592;28;20124;-79
2022/04/26 11:40:29;;;;;;;5.90;3.60;;;;;;;21.01;30.57;101758.56;5238008;28;20040;-78
2022/04/26 11:43:09;;;;;;;8.25;3.85;;;;;;;21.77;29.96;101753.59;5237997;28;20033;-78
2022/04/26 11:45:46;;;;;;;6.75;3.92;;;;;;;23.59;26.66;101748.41;5238333;28;20151;-78
2022/04/26 11:48:26;;;;;;;8.35;3.95;;;;;;;22.30;27.08;101760.06;5238413;28;20075;-78
2022/04/26 11:50:58;;;;;;;8.13;4.28;;;;;;;22.16;27.79;101758.88;5239034;28;20037;-78
2022/04/26 11:53:31;;;;;;;8.15;3.83;;;;;;;22.08;28.84;101760.19;5238172;28;20026;-78
2022/04/26 11:56:06;;;;;;;8.10;4.15;;;;;;;22.81;28.65;101771.78;5238449;28;20030;-78
2022/04/26 11:58:40;;;;;;;7.90;4.30;;;;;;;21.54;27.67;101760.78;5237263;28;20104;-79
2022/04/26 12:01:16;;;;;;;8.05;4.07;;;;;;;22.14;27.56;101759.91;5237185;28;20029;-79
2022/04/26 12:03:54;;;;;;;6.75;3.97;;;;;;;22.86;26.60;101767.13;5220142;28;20021;-79
2022/04/26 12:06:34;;;;;;;6.60;3.72;;;;;;;23.89;26.18;101762.84;5237155;28;20034;-79
2022/04/26 12:09:08;;;;;;;5.43;3.53;;;;;;;24.60;24.49;101773.22;5236807;28;20029;-80
2022/04/26 12:11:41;;;;;;;6.72;3.33;;;;;;;24.35;23.69;101768.34;5237985;28;20041;-79
2022/04/26 12:14:14;;;;;;;9.13;4.15;;;;;;;23.07;25.17;101770.56;5237833;28;20430;-81
2022/04/26 12:16:48;;;;;;;6.05;3.80;;;;;;;23.84;25.06;101769.31;5238403;28;20128;-81
2022/04/26 12:19:19;;;;;;;4.88;3.20;;;;;;;23.51;23.75;101763.06;5225015;28;20516;-79
2022/04/26 12:21:59;;;;;;;6.18;3.67;;;;;;;21.66;26.02;101775.28;5248537;28;20064;-81
2022/04/26 12:24:32;;;;;;;14.05;4.18;;;;;;;20.72;28.31;101769.41;5249411;28;20097;-79
2022/04/26 12:27:11;;;;;;;7.35;3.88;;;;;;;21.89;26.30;101765.44;5238175;28;20032;-80
2022/04/26 12:29:46;;;;;;;5.30;3.58;;;;;;;22.22;26.60;101765.72;5240326;28;20025;-79
2022/04/26 12:32:19;;;;;;;6.53;3.70;;;;;;;22.75;25.46;101764.13;5248668;28;20032;-79
2022/04/26 12:34:52;;;;;;;4.25;3.05;;;;;;;24.27;23.81;101763.44;5245287;28;20040;-80
2022/04/26 12:37:27;;;;;;;6.88;3.20;;;;;;;25.88;22.48;101759.50;5248456;28;20013;-78
2022/04/26 12:40:11;;;;;;;5.70;3.85;;;;;;;23.44;24.99;101767.81;5247956;28;20052;-79
2022/04/26 12:42:45;;;;;;;6.03;3.90;;;;;;;21.79;25.70;101754.38;5230130;28;20021;-79
2022/04/26 12:45:23;;;;;;;6.45;3.65;;;;;;;20.86;28.08;101779.44;5227250;28;20080;-78
2022/04/26 12:51:11;;;;;;;7.28;3.90;;;;;;;19.59;29.35;101764.72;5236608;28;20041;-77
2022/04/26 12:53:45;;;;;;;5.53;3.53;;;;;;;19.61;30.37;101760.25;5242415;28;20486;-78
2022/04/26 12:56:17;;;;;;;6.90;3.88;;;;;;;20.79;29.16;101766.53;5245644;28;20032;-79
2022/04/26 12:58:48;;;;;;;;;;;;;;;22.47;27.49;101770.75;5238212;28;20104;-78
2022/04/26 13:01:20;;;;;;;8.03;4.50;;;;;;;23.51;25.20;101766.56;5235584;28;19923;-79
2022/04/26 13:03:52;;;;;;;8.90;4.63;;;;;;;23.99;25.94;101762.28;5235258;28;20027;-79
2022/04/26 13:06:25;;;;;;;6.77;4.40;;;;;;;23.57;25.50;101766.25;5237985;28;20033;-78
2022/04/26 13:08:56;;;;;;;6.97;4.18;;;;;;;24.86;25.05;101769.06;5229131;28;20022;-79
2022/04/26 13:11:27;;;;;;;8.95;4.70;;;;;;;23.92;25.23;101755.56;5227239;28;20022;-80
2022/04/26 13:13:59;;;;;;;8.40;4.33;;;;;;;24.03;26.81;101758.50;5227952;28;20025;-78
2022/04/26 13:16:31;;;;;;;7.53;4.00;;;;;;;24.48;25.10;101763.19;5230188;28;20288;-79
2022/04/26 13:19:02;;;;;;;6.18;4.10;;;;;;;25.10;24.47;101768.56;5235644;28;20076;-78
2022/04/26 13:21:35;;;;;;;7.15;4.15;;;;;;;25.48;23.05;101755.63;5213301;28;20487;-77
2022/04/26 13:24:06;;;;;;;8.98;3.90;;;;;;;22.21;26.55;101756.88;5243168;28;20526;-79
2022/04/26 13:26:38;;;;;;;5.85;4.00;;;;;;;22.55;26.91;101755.31;5243849;28;20021;-77
2022/04/26 13:29:09;;;;;;;8.27;4.00;;;;;;;20.26;30.51;101763.22;5236703;28;20602;-78
2022/04/26 13:31:41;;;;;;;6.17;4.10;;;;;;;20.39;30.96;101761.81;5234447;28;20087;-79
2022/04/26 13:34:13;;;;;;;;;;;;;;;22.58;28.62;101765.78;5235249;28;20120;-77
2022/04/26 13:36:44;;;;;;;11.53;3.87;;;;;;;22.17;29.32;101759.72;5234699;28;20332;-79
2022/04/26 13:39:15;;;;;;;7.63;4.00;;;;;;;20.51;30.22;101762.28;5235517;28;20798;-79
2022/04/26 13:41:50;;;;;;;7.57;4.57;;;;;;;18.63;33.42;101768.72;5234937;28;20033;-78
2022/04/26 13:44:21;;;;;;;7.13;3.95;;;;;;;18.29;35.15;101767.09;5234592;28;20072;-79
2022/04/26 13:46:53;;;;;;;9.77;4.60;;;;;;;18.43;34.66;101766.72;5234504;28;20033;-79
2022/04/26 13:49:25;;;;;;;5.38;3.85;;;;;;;18.63;33.93;101774.91;5235599;28;20033;-80
2022/04/26 13:51:57;;;;;;;6.97;4.00;;;;;;;17.88;35.00;101774.44;5236144;28;20040;-78
2022/04/26 13:54:28;;;;;;;6.47;4.20;;;;;;;17.72;35.88;101769.53;5236867;28;20026;-79
2022/04/26 13:57:05;;;;;;;7.03;4.20;;;;;;;18.08;35.43;101771.22;5236957;28;20033;-79
2022/04/26 13:59:36;;;;;;;12.80;4.00;;;;;;;18.49;34.57;101769.16;5236629;28;20033;-78
2022/04/26 14:02:08;;;;;;;9.53;4.10;;;;;;;19.84;32.07;101775.34;5235188;28;20029;-79
2022/04/26 14:04:40;;;;;;;7.67;3.90;;;;;;;19.07;33.85;101774.44;5236227;28;20229;-78
2022/04/26 14:07:11;;;;;;;;;;;;;;;20.51;32.12;101772.88;5236217;28;20116;-79
2022/04/26 14:09:44;;;;;;;7.10;3.65;;;;;;;20.43;31.29;101775.84;5235772;28;20004;-78
2022/04/26 14:12:18;;;;;;;6.55;3.75;;;;;;;20.49;30.94;101774.72;5235367;28;20439;-77
2022/04/26 14:23:22;;;;;;;7.13;3.42;;;;;;;18.47;32.68;101773.63;5236740;28;20033;-80
2022/04/26 14:25:54;;;;;;;6.77;3.47;;;;;;;18.35;32.80;101780.13;5236096;28;20025;-78
2022/04/26 14:28:25;;;;;;;4.18;2.88;;;;;;;18.93;31.45;101774.88;5236954;28;20030;-79
2022/04/26 14:30:57;;;;;;;7.60;3.00;;;;;;;18.37;33.61;101779.19;5221589;28;20088;-78
2022/04/26 14:33:28;;;;;;;4.47;3.13;;;;;;;17.79;32.87;101775.50;5239059;28;20026;-78
2022/04/26 14:36:01;;;;;;;5.97;2.87;;;;;;;17.89;34.48;101776.16;5240008;28;20028;-79
2022/04/26 14:38:32;;;;;;;8.80;3.30;;;;;;;17.26;34.25;101779.53;5239078;28;20029;-79
2022/04/26 14:41:04;;;;;;;4.90;3.20;;;;;;;17.18;34.57;101792.03;5239217;28;20029;-78
2022/04/26 14:43:36;;;;;;;7.33;3.23;;;;;;;17.18;35.47;101789.38;5238175;28;20191;-77
2022/04/26 14:46:07;;;;;;;7.15;3.78;;;;;;;16.58;35.30;101788.09;5239261;28;20037;-78
2022/04/26 14:48:39;;;;;;;8.20;3.80;;;;;;;16.53;36.33;101789.94;5239574;28;20040;-78
2022/04/26 14:51:11;;;;;;;8.30;3.60;;;;;;;16.52;35.66;101786.47;5238963;28;20059;-79
2022/04/26 14:53:43;;;;;;;4.63;3.20;;;;;;;16.71;36.63;101799.22;5239871;28;20034;-78
2022/04/26 14:56:15;;;;;;;9.20;3.70;;;;;;;16.52;36.51;101790.88;5239477;28;20091;-78
2022/04/26 14:58:49;;;;;;;;;;;;;;;16.63;36.20;101793.25;5240041;28;20064;-78
2022/04/26 15:01:20;;;;;;;15.35;4.90;;;;;;;16.60;36.45;101788.94;5239405;28;19912;-78
2022/04/26 15:03:51;;;;;;;4.30;3.27;;;;;;;16.51;37.52;101789.13;5239294;28;20032;-77
2022/04/26 15:06:23;;;;;;;6.50;3.80;;;;;;;16.93;36.66;101795.22;5239080;28;20055;-79
2022/04/26 15:11:44;;;;;;;6.35;3.10;;;;;;;17.24;35.47;101789.25;5238886;28;20288;-79
2022/04/26 15:17:05;;;;;;;5.43;3.40;;;;;;;18.78;33.31;101784.97;5240225;28;20034;-79
2022/04/26 15:19:37;;;;;;;5.53;4.43;;;;;;;21.39;29.31;101786.13;5226040;28;20037;-79
2022/04/26 15:22:13;;;;;;;6.82;3.42;;;;;;;21.13;27.72;101782.78;5249591;28;20056;-79
2022/04/26 15:24:50;;;;;;;8.32;3.15;;;;;;;22.10;26.42;101791.00;5250838;28;20124;-79
2022/04/26 15:27:22;;;;;;;8.38;3.38;;;;;;;25.00;24.18;101786.91;5222532;28;20060;-80
2022/04/26 15:29:53;;;;;;;7.47;3.00;;;;;;;24.75;23.51;101792.81;5238576;28;20030;-79
2022/04/26 15:32:25;;;;;;;4.73;2.83;;;;;;;24.73;22.29;101789.38;5238723;28;20488;-78
2022/04/26 15:34:57;;;;;;;8.93;2.72;;;;;;;23.31;23.10;101780.88;5239691;28;20025;-78
2022/04/26 15:37:29;;;;;;;6.63;2.92;;;;;;;25.35;21.80;101786.69;5239913;28;20487;-78
2022/04/26 15:40:01;;;;;;;7.13;2.63;;;;;;;25.29;21.85;101797.72;5238819;28;20017;-79
2022/04/26 15:42:33;;;;;;;5.57;2.85;;;;;;;24.94;22.81;101796.16;5240079;28;20025;-79
2022/04/26 15:45:05;;;;;;;9.25;3.42;;;;;;;27.14;20.47;101782.66;5239244;28;20091;-79
2022/04/26 15:47:37;;;;;;;9.85;2.70;;;;;;;26.26;21.12;101791.00;5239412;28;20471;-79
2022/04/26 15:50:08;;;;;;;7.57;3.15;;;;;;;26.75;19.72;101794.06;5239411;28;20461;-79
2022/04/26 15:52:40;;;;;;;5.68;2.72;;;;;;;23.84;21.12;101797.72;5239041;28;20052;-79
2022/04/26 15:55:12;;;;;;;5.90;2.80;;;;;;;22.86;22.46;101784.88;5239083;28;20032;-78
2022/04/26 15:57:46;;;;;;;5.43;2.70;;;;;;;22.50;23.37;101797.19;5239044;28;20473;-80
2022/04/26 16:00:20;;;;;;;5.72;2.75;;;;;;;22.28;23.95;101791.13;5240313;28;20029;-79
2022/04/26 16:02:51;;;;;;;4.88;3.25;;;;;;;22.81;22.92;101793.06;5238622;28;20067;-78
2022/04/26 16:05:23;;;;;;;5.55;2.70;;;;;;;24.06;21.54;101800.09;5238568;28;20049;-78
2022/04/26 16:07:54;;;;;;;6.47;2.92;;;;;;;24.68;21.09;101796.75;5238830;28;20064;-79
2022/04/26 16:21:45;;;;;;;3.35;2.20;;;;;;;24.05;21.17;101798.38;5236383;28;20033;-80
2022/04/26 16:24:17;;;;;;;9.57;2.75;;;;;;;24.75;20.93;101806.16;5237027;28;20033;-78